Tuesday, August 14, 2018, 11:51 PM CDT
Back to Local

KLOT, Chicago/romeoville, Lewis University Airport

Location: Lockport, IL, United States Lat: 41.608
Local Time: 11:51 PM CDT ( 4:51 GMT) Lon: -88.094
Time Zone: US/Central Elev: 672 ft

Show me the last for .
Show Decoded

2018-08-14 23:35 METAR KLOT 150435Z AUTO 14004KT 10SM CLR 21/17 A2996 RMK AO2 T02130172 =
2018-08-14 23:15 METAR KLOT 150415Z AUTO 17004KT 10SM CLR 22/18 A2997 RMK AO2 T02180175 =
2018-08-14 22:55 METAR KLOT 150355Z AUTO 17004KT 10SM CLR 22/17 A2997 RMK AO2 T02240173 =
2018-08-14 22:35 METAR KLOT 150335Z AUTO 16004KT 10SM CLR 23/17 A2997 RMK AO2 T02270173 =
2018-08-14 22:15 METAR KLOT 150315Z AUTO 16003KT 10SM CLR 23/17 A2997 RMK AO2 T02340173 =
2018-08-14 21:55 METAR KLOT 150255Z AUTO 15005KT 10SM CLR 24/17 A2997 RMK AO2 T02360172 =
2018-08-14 21:35 METAR KLOT 150235Z AUTO 00000KT 10SM CLR 23/18 A2998 RMK AO2 T02340176 =
2018-08-14 21:15 METAR KLOT 150215Z AUTO 19003KT 10SM CLR 24/17 A2997 RMK AO2 T02400172 =
2018-08-14 20:55 METAR KLOT 150155Z AUTO 22004KT 10SM CLR 24/18 A2996 RMK AO2 T02370176 =
2018-08-14 20:35 METAR KLOT 150135Z AUTO 21005KT 10SM CLR 24/18 A2996 RMK AO2 T02370177 =
2018-08-14 20:15 METAR KLOT 150115Z AUTO 00000KT 10SM CLR 25/18 A2995 RMK AO2 T02460183 =
2018-08-14 19:55 METAR KLOT 150055Z AUTO 28003KT 10SM CLR 27/18 A2995 RMK AO2 T02680176 =
2018-08-14 19:35 METAR KLOT 150035Z AUTO 00000KT 10SM CLR 26/18 A2995 RMK AO2 T02640182 =
2018-08-14 19:15 METAR KLOT 150015Z AUTO 26003KT 10SM CLR 27/18 A2995 RMK AO2 LTG DSNT W
                 T02710180 =
2018-08-14 18:55 METAR KLOT 142355Z AUTO 28003KT 10SM CLR 28/18 A2995 RMK AO2 T02760182 10307
                 20276 =
2018-08-14 18:35 METAR KLOT 142335Z AUTO 25003KT 10SM CLR 28/18 A2995 RMK AO2 T02800175 =
2018-08-14 18:15 METAR KLOT 142315Z AUTO 27004KT 10SM CLR 29/18 A2995 RMK AO2 T02900175 =
2018-08-14 17:55 METAR KLOT 142255Z AUTO 26006KT 10SM CLR 29/17 A2996 RMK AO2 T02910168 =
2018-08-14 17:35 METAR KLOT 142235Z AUTO 23004KT 10SM SCT060 29/18 A2996 RMK AO2 T02910176 =
2018-08-14 17:15 METAR KLOT 142215Z AUTO 28004KT 10SM SCT060 29/17 A2996 RMK AO2 T02900170 =
2018-08-14 16:55 METAR KLOT 142155Z AUTO 22006KT 10SM SCT060 30/17 A2996 RMK AO2 T02980166 =
2018-08-14 16:35 METAR KLOT 142135Z AUTO 24006KT 10SM CLR 30/16 A2996 RMK AO2 T03000158 =
2018-08-14 16:15 METAR KLOT 142115Z AUTO 22004KT 10SM CLR 29/16 A2996 RMK AO2 T02930156 =
2018-08-14 15:55 METAR KLOT 142055Z AUTO 25004KT 10SM CLR 30/16 A2996 RMK AO2 T02980158 =
2018-08-14 15:35 METAR KLOT 142035Z AUTO 22008KT 10SM SCT060 31/15 A2997 RMK AO2 T03060153 =
2018-08-14 15:15 METAR KLOT 142015Z AUTO 23004KT 10SM BKN060 30/17 A2998 RMK AO2 T03030168 =
2018-08-14 14:55 METAR KLOT 141955Z AUTO 32003KT 10SM SCT050 30/16 A2998 RMK AO2 T03000155 =
2018-08-14 14:35 METAR KLOT 141935Z AUTO 21005KT 10SM SCT050 SCT065 30/18 A2999 RMK AO2 T02990178
                 =
2018-08-14 14:15 METAR KLOT 141915Z AUTO 25005KT 10SM SCT050 BKN065 30/18 A2999 RMK AO2 T02980176
                 =
2018-08-14 13:55 METAR KLOT 141855Z AUTO 23004KT 10SM SCT050 SCT065 29/18 A3000 RMK AO2 T02940181
                 =
2018-08-14 13:35 METAR KLOT 141835Z AUTO 26003KT 10SM SCT050 SCT055 29/18 A3000 RMK AO2 T02930176
                 =
2018-08-14 13:15 METAR KLOT 141815Z AUTO 33003KT 10SM BKN050 BKN055 30/18 A3001 RMK AO2 T02970181
                 =
2018-08-14 12:55 METAR KLOT 141755Z AUTO 21006KT 10SM BKN048 BKN055 30/18 A3001 RMK AO2 T03000178
                 10301 20176 =
2018-08-14 12:35 METAR KLOT 141735Z AUTO 27003KT 10SM BKN046 BKN055 29/17 A3001 RMK AO2 T02900171
                 =
2018-08-14 12:15 METAR KLOT 141715Z AUTO 21004KT 10SM SCT046 29/18 A3001 RMK AO2 T02920178 =
2018-08-14 11:55 METAR KLOT 141655Z AUTO 20004KT 10SM SCT046 29/18 A3001 RMK AO2 T02900179 =
2018-08-14 11:35 METAR KLOT 141635Z AUTO 27003KT 10SM CLR 29/17 A3001 RMK AO2 T02860172 =
2018-08-14 11:15 METAR KLOT 141615Z AUTO 00000KT 10SM CLR 28/18 A3002 RMK AO2 T02840179 =
2018-08-14 10:55 METAR KLOT 141555Z AUTO 24004KT 10SM CLR 28/18 A3002 RMK AO2 T02760179 =
2018-08-14 10:35 METAR KLOT 141535Z AUTO 22004KT 10SM CLR 27/18 A3002 RMK AO2 T02700183 =
2018-08-14 10:15 METAR KLOT 141515Z AUTO 24005KT 10SM CLR 26/18 A3002 RMK AO2 T02620180 =
2018-08-14 09:55 METAR KLOT 141455Z AUTO 26005KT 10SM CLR 26/18 A3002 RMK AO2 T02560181 =
2018-08-14 09:35 METAR KLOT 141435Z AUTO 27004KT 10SM CLR 25/19 A3002 RMK AO2 T02500190 =
2018-08-14 09:15 METAR KLOT 141415Z AUTO 29006KT 10SM CLR 25/19 A3002 RMK AO2 T02510188 =
2018-08-14 08:55 METAR KLOT 141355Z AUTO 00000KT 7SM CLR 24/19 A3002 RMK AO2 T02370190 =
2018-08-14 08:35 METAR KLOT 141335Z AUTO 00000KT 10SM CLR 22/19 A3002 RMK AO2 T02240188 =
2018-08-14 08:15 METAR KLOT 141315Z AUTO 00000KT 10SM CLR 22/18 A3002 RMK AO2 T02150184 =
2018-08-14 07:55 METAR KLOT 141255Z AUTO 00000KT 7SM CLR 21/19 A3002 RMK AO2 T02070186 =
2018-08-14 07:35 METAR KLOT 141235Z AUTO 00000KT 7SM CLR 20/18 A3002 RMK AO2 T01950183 =
2018-08-14 07:15 METAR KLOT 141215Z AUTO 00000KT 5SM BR CLR 19/18 A3001 RMK AO2 T01850178 =
2018-08-14 06:55 METAR KLOT 141155Z AUTO 00000KT 5SM BR CLR 18/17 A3002 RMK AO2 T01750168 10202
                 20163 =
2018-08-14 06:35 METAR KLOT 141135Z AUTO 00000KT 5SM BR CLR 17/17 A3001 RMK AO2 T01730166 =
2018-08-14 06:15 METAR KLOT 141115Z AUTO 00000KT 7SM CLR 17/16 A3002 RMK AO2 T01660159 =
2018-08-14 05:55 METAR KLOT 141055Z AUTO 00000KT 5SM BR CLR 17/16 A3001 RMK AO2 T01660160 =
2018-08-14 05:35 METAR KLOT 141035Z AUTO 00000KT 7SM CLR 17/16 A3001 RMK AO2 T01660158 =
2018-08-14 05:15 METAR KLOT 141015Z AUTO 00000KT 7SM CLR 17/16 A3001 RMK AO2 T01660159 =
2018-08-14 04:55 METAR KLOT 140955Z AUTO 00000KT 7SM CLR 17/16 A3001 RMK AO2 T01660157 =
2018-08-14 04:35 METAR KLOT 140935Z AUTO 00000KT 7SM CLR 18/16 A3001 RMK AO2 T01760163 =
2018-08-14 04:15 METAR KLOT 140915Z AUTO 00000KT 10SM CLR 17/16 A3000 RMK AO2 T01650155 =
2018-08-14 03:55 METAR KLOT 140855Z AUTO 27003KT 10SM CLR 18/16 A3000 RMK AO2 T01780163 =
2018-08-14 03:35 METAR KLOT 140835Z AUTO 29003KT 10SM CLR 17/16 A3001 RMK AO2 T01700161 =
2018-08-14 03:15 METAR KLOT 140815Z AUTO 20003KT 10SM CLR 17/16 A3001 RMK AO2 T01740158 =
2018-08-14 02:55 METAR KLOT 140755Z AUTO 17004KT 10SM CLR 18/16 A3001 RMK AO2 T01800162 =
2018-08-14 02:35 METAR KLOT 140735Z AUTO 00000KT 10SM CLR 18/16 A3001 RMK AO2 T01770162 =
2018-08-14 02:15 METAR KLOT 140715Z AUTO 14004KT 10SM CLR 18/16 A3001 RMK AO2 T01820162 =
2018-08-14 01:55 METAR KLOT 140655Z AUTO 14003KT 10SM CLR 19/17 A3001 RMK AO2 T01920165 =
2018-08-14 01:35 METAR KLOT 140635Z AUTO 00000KT 10SM CLR 19/17 A3002 RMK AO2 T01910165 =
2018-08-14 01:10 METAR KLOT 140610Z AUTO 00000KT 10SM CLR 20/17 A3003 RMK AO2 T02000166 =
2018-08-14 00:55 METAR KLOT 140555Z AUTO 00000KT 10SM CLR 20/16 A3002 RMK AO2 T02000163 10283
                 20196 403140156 =
2018-08-14 00:35 METAR KLOT 140535Z AUTO 12003KT 10SM CLR 20/16 A3002 RMK AO2 T02000161 =
2018-08-14 00:15 METAR KLOT 140515Z AUTO 17003KT 10SM CLR 21/16 A3003 RMK AO2 T02050160 =
2018-08-13 23:55 METAR KLOT 140455Z AUTO 00000KT 10SM CLR 21/16 A3003 RMK AO2 T02060160 =

Support USWX by starting your Amazon purchase here.